PWSweather.com
Personal Weather Stations
Station Observations
IROGLAN40
AalgaardNO 4330

AalgaardNO 4330

Lat: 58.773, Lon: 5.846

Elevation: 326

Station Type: Davis Vanatge Pro2

www.mavahome.com

High Low Average
Temperature 41.7°F5.4°C 26.9°F-2.8°C 33.7°F0.9°C
Dew Point 37.1°F2.8°C 26.3°F-3.2°C 31.3°F-0.4°C
Winds 1.2 mph 1.9 kmh Calm Calm Calm SWCalm SW
Wind Gusts 3.5 mph5.6 kmh -- --
Humidity 98% 75% 91%
Pressure 29.73 in1006.8 mb 29.38 in994.9 mb -
Precipitation 0.00 in0.0 mm - -
Hour Temp Dew Point Humidity Winds Wind Gusts Pressure Precip Precip Rate Daily Precip Total
12:00 AM 31.5°F-0.3°C 30.7°F-0.7°C 97% Calm Calm -- 29.38 in994.9 mb - 0.00 in0.0 mm 0.00 in0.0 mm
12:10 AM 31.2°F-0.4°C 30.4°F-0.9°C 97% Calm Calm -- 29.38 in994.9 mb - 0.00 in0.0 mm 0.00 in0.0 mm
12:20 AM 31.1°F-0.5°C 30.3°F-0.9°C 97% Calm Calm -- 29.38 in994.9 mb - 0.00 in0.0 mm 0.00 in0.0 mm
12:30 AM 31.0°F-0.6°C 30.2°F-1.0°C 97% Calm Calm -- 29.38 in994.9 mb - 0.00 in0.0 mm 0.00 in0.0 mm
12:40 AM 30.9°F-0.6°C 30.2°F-1.0°C 97% Calm Calm -- 29.38 in994.9 mb - 0.00 in0.0 mm 0.00 in0.0 mm
12:50 AM 30.8°F-0.7°C 30.0°F-1.1°C 97% Calm Calm -- 29.38 in994.9 mb - 0.00 in0.0 mm 0.00 in0.0 mm
01:00 AM 30.5°F-0.8°C 29.8°F-1.2°C 97% Calm Calm -- 29.38 in994.9 mb - 0.00 in0.0 mm 0.00 in0.0 mm
01:10 AM 30.4°F-0.9°C 29.7°F-1.3°C 97% Calm Calm -- 29.38 in994.9 mb - 0.00 in0.0 mm 0.00 in0.0 mm
01:20 AM 30.5°F-0.8°C 29.8°F-1.2°C 97% Calm Calm -- 29.38 in994.9 mb - 0.00 in0.0 mm 0.00 in0.0 mm
01:30 AM 30.5°F-0.8°C 29.8°F-1.2°C 97% Calm Calm -- 29.38 in994.9 mb - 0.00 in0.0 mm 0.00 in0.0 mm
01:40 AM 30.3°F-0.9°C 29.6°F-1.3°C 97% Calm Calm -- 29.38 in994.9 mb - 0.00 in0.0 mm 0.00 in0.0 mm
01:50 AM 30.2°F-1.0°C 29.5°F-1.4°C 97% Calm Calm -- 29.38 in994.9 mb - 0.00 in0.0 mm 0.00 in0.0 mm
02:00 AM 30.0°F-1.1°C 29.3°F-1.5°C 97% Calm Calm -- 29.39 in995.3 mb - 0.00 in0.0 mm 0.00 in0.0 mm
02:10 AM 29.8°F-1.2°C 29.1°F-1.6°C 97% Calm Calm -- 29.39 in995.3 mb - 0.00 in0.0 mm 0.00 in0.0 mm
02:20 AM 29.9°F-1.2°C 29.2°F-1.6°C 97% Calm Calm -- 29.39 in995.3 mb - 0.00 in0.0 mm 0.00 in0.0 mm
02:30 AM 29.8°F-1.2°C 29.3°F-1.5°C 98% Calm Calm -- 29.39 in995.3 mb - 0.00 in0.0 mm 0.00 in0.0 mm
02:40 AM 29.8°F-1.2°C 29.3°F-1.5°C 98% Calm Calm -- 29.39 in995.3 mb - 0.00 in0.0 mm 0.00 in0.0 mm
02:50 AM 29.7°F-1.3°C 29.0°F-1.7°C 97% Calm Calm -- 29.39 in995.3 mb - 0.00 in0.0 mm 0.00 in0.0 mm
03:00 AM 29.8°F-1.2°C 29.0°F-1.7°C 97% Calm Calm -- 29.39 in995.3 mb - 0.00 in0.0 mm 0.00 in0.0 mm
03:10 AM 29.8°F-1.2°C 29.1°F-1.6°C 97% Calm Calm -- 29.39 in995.3 mb - 0.00 in0.0 mm 0.00 in0.0 mm
03:20 AM 29.6°F-1.3°C 29.1°F-1.6°C 98% Calm Calm -- 29.39 in995.3 mb - 0.00 in0.0 mm 0.00 in0.0 mm
03:30 AM 29.4°F-1.4°C 28.9°F-1.7°C 98% Calm Calm -- 29.39 in995.3 mb - 0.00 in0.0 mm 0.00 in0.0 mm
03:40 AM 29.4°F-1.4°C 28.9°F-1.7°C 98% Calm Calm -- 29.39 in995.3 mb - 0.00 in0.0 mm 0.00 in0.0 mm
03:50 AM 29.4°F-1.4°C 28.9°F-1.7°C 98% Calm Calm -- 29.39 in995.3 mb - 0.00 in0.0 mm 0.00 in0.0 mm
04:00 AM 29.2°F-1.6°C 28.7°F-1.8°C 98% Calm Calm -- 29.39 in995.3 mb - 0.00 in0.0 mm 0.00 in0.0 mm
04:10 AM 29.0°F-1.7°C 28.5°F-1.9°C 98% Calm Calm -- 29.40 in995.6 mb - 0.00 in0.0 mm 0.00 in0.0 mm
04:20 AM 28.8°F-1.8°C 28.3°F-2.1°C 98% Calm Calm -- 29.40 in995.6 mb - 0.00 in0.0 mm 0.00 in0.0 mm
04:30 AM 28.6°F-1.9°C 28.1°F-2.2°C 98% Calm Calm -- 29.40 in995.6 mb - 0.00 in0.0 mm 0.00 in0.0 mm
04:40 AM 28.4°F-2.0°C 27.9°F-2.3°C 98% Calm Calm -- 29.40 in995.6 mb - 0.00 in0.0 mm 0.00 in0.0 mm
04:50 AM 28.3°F-2.1°C 27.8°F-2.3°C 98% Calm Calm -- 29.40 in995.6 mb - 0.00 in0.0 mm 0.00 in0.0 mm
05:00 AM 28.2°F-2.1°C 27.7°F-2.4°C 98% Calm Calm -- 29.40 in995.6 mb - 0.00 in0.0 mm 0.00 in0.0 mm
05:10 AM 28.1°F-2.2°C 27.6°F-2.4°C 98% Calm Calm -- 29.41 in995.9 mb - 0.00 in0.0 mm 0.00 in0.0 mm
05:20 AM 28.0°F-2.2°C 27.5°F-2.5°C 98% Calm Calm -- 29.41 in995.9 mb - 0.00 in0.0 mm 0.00 in0.0 mm
05:30 AM 27.8°F-2.3°C 27.3°F-2.6°C 98% Calm Calm -- 29.41 in995.9 mb - 0.00 in0.0 mm 0.00 in0.0 mm
05:40 AM 27.6°F-2.4°C 27.1°F-2.7°C 98% Calm Calm -- 29.41 in995.9 mb - 0.00 in0.0 mm 0.00 in0.0 mm
05:50 AM 27.5°F-2.5°C 27.0°F-2.8°C 98% Calm Calm -- 29.41 in995.9 mb - 0.00 in0.0 mm 0.00 in0.0 mm
06:00 AM 27.4°F-2.6°C 26.9°F-2.8°C 98% Calm Calm -- 29.41 in995.9 mb - 0.00 in0.0 mm 0.00 in0.0 mm
06:10 AM 27.2°F-2.7°C 26.7°F-2.9°C 98% Calm Calm -- 29.41 in995.9 mb - 0.00 in0.0 mm 0.00 in0.0 mm
06:20 AM 27.0°F-2.8°C 26.5°F-3.1°C 98% Calm Calm -- 29.42 in996.3 mb - 0.00 in0.0 mm 0.00 in0.0 mm
06:30 AM 26.9°F-2.8°C 26.4°F-3.1°C 98% Calm Calm -- 29.42 in996.3 mb - 0.00 in0.0 mm 0.00 in0.0 mm
06:40 AM 27.0°F-2.8°C 26.5°F-3.1°C 98% Calm Calm -- 29.42 in996.3 mb - 0.00 in0.0 mm 0.00 in0.0 mm
06:50 AM 27.1°F-2.7°C 26.6°F-3.0°C 98% Calm Calm -- 29.43 in996.6 mb - 0.00 in0.0 mm 0.00 in0.0 mm
07:00 AM 27.3°F-2.6°C 26.8°F-2.9°C 98% Calm Calm -- 29.42 in996.3 mb - 0.00 in0.0 mm 0.00 in0.0 mm
07:10 AM 27.9°F-2.3°C 26.7°F-2.9°C 95% 1.2 mph ESE1.9 kmh ESE 2.3 mph3.7 kmh 29.43 in996.6 mb - 0.00 in0.0 mm 0.00 in0.0 mm
07:20 AM 27.8°F-2.3°C 26.3°F-3.2°C 94% Calm Calm 2.3 mph3.7 kmh 29.43 in996.6 mb - 0.00 in0.0 mm 0.00 in0.0 mm
07:30 AM 28.0°F-2.2°C 26.5°F-3.1°C 94% 1.2 mph E1.9 kmh E 2.3 mph3.7 kmh 29.43 in996.6 mb - 0.00 in0.0 mm 0.00 in0.0 mm
07:40 AM 27.9°F-2.3°C 26.4°F-3.1°C 94% Calm Calm 2.3 mph3.7 kmh 29.44 in997.0 mb - 0.00 in0.0 mm 0.00 in0.0 mm
07:50 AM 27.9°F-2.3°C 26.4°F-3.1°C 94% Calm Calm -- 29.44 in997.0 mb - 0.00 in0.0 mm 0.00 in0.0 mm
08:00 AM 27.9°F-2.3°C 26.4°F-3.1°C 94% Calm Calm 1.2 mph1.9 kmh 29.45 in997.3 mb - 0.00 in0.0 mm 0.00 in0.0 mm
08:10 AM 28.3°F-2.1°C 27.1°F-2.7°C 95% Calm Calm -- 29.45 in997.3 mb - 0.00 in0.0 mm 0.00 in0.0 mm
08:20 AM 28.6°F-1.9°C 27.4°F-2.6°C 95% Calm Calm -- 29.45 in997.3 mb - 0.00 in0.0 mm 0.00 in0.0 mm
08:30 AM 28.9°F-1.7°C 27.7°F-2.4°C 95% Calm Calm 1.2 mph1.9 kmh 29.45 in997.3 mb - 0.00 in0.0 mm 0.00 in0.0 mm
08:40 AM 29.1°F-1.6°C 27.6°F-2.4°C 94% 1.2 mph SE1.9 kmh SE 2.3 mph3.7 kmh 29.46 in997.6 mb - 0.00 in0.0 mm 0.00 in0.0 mm
08:50 AM 29.5°F-1.4°C 28.0°F-2.2°C 94% 1.2 mph ESE1.9 kmh ESE 1.2 mph1.9 kmh 29.46 in997.6 mb - 0.00 in0.0 mm 0.00 in0.0 mm
09:00 AM 29.8°F-1.2°C 28.3°F-2.1°C 94% 1.2 mph E1.9 kmh E 3.5 mph5.6 kmh 29.46 in997.6 mb - 0.00 in0.0 mm 0.00 in0.0 mm
09:10 AM 30.3°F-0.9°C 28.8°F-1.8°C 94% Calm Calm 2.3 mph3.7 kmh 29.47 in998.0 mb - 0.00 in0.0 mm 0.00 in0.0 mm
09:20 AM 30.8°F-0.7°C 29.3°F-1.5°C 94% 1.2 mph SE1.9 kmh SE 1.2 mph1.9 kmh 29.47 in998.0 mb - 0.00 in0.0 mm 0.00 in0.0 mm
09:30 AM 31.4°F-0.3°C 29.9°F-1.2°C 94% Calm Calm 1.2 mph1.9 kmh 29.47 in998.0 mb - 0.00 in0.0 mm 0.00 in0.0 mm
09:40 AM 32.0°F0.0°C 30.5°F-0.8°C 94% 1.2 mph SE1.9 kmh SE 1.2 mph1.9 kmh 29.47 in998.0 mb - 0.00 in0.0 mm 0.00 in0.0 mm
09:50 AM 32.5°F0.3°C 31.0°F-0.6°C 94% Calm Calm 3.5 mph5.6 kmh 29.48 in998.3 mb - 0.00 in0.0 mm 0.00 in0.0 mm
10:00 AM 33.2°F0.7°C 31.7°F-0.2°C 94% Calm Calm 2.3 mph3.7 kmh 29.48 in998.3 mb - 0.00 in0.0 mm 0.00 in0.0 mm
10:10 AM 33.8°F1.0°C 33.3°F0.7°C 98% Calm Calm -- 29.48 in998.3 mb - 0.00 in0.0 mm 0.00 in0.0 mm
10:20 AM 34.5°F1.4°C 33.8°F1.0°C 97% Calm Calm -- 29.48 in998.3 mb - 0.00 in0.0 mm 0.00 in0.0 mm
10:30 AM 35.3°F1.8°C 34.0°F1.1°C 95% Calm Calm -- 29.49 in998.6 mb - 0.00 in0.0 mm 0.00 in0.0 mm
10:40 AM 37.1°F2.8°C 35.5°F1.9°C 94% Calm Calm -- 29.50 in999.0 mb - 0.00 in0.0 mm 0.00 in0.0 mm
10:50 AM 38.7°F3.7°C 36.8°F2.7°C 93% Calm Calm -- 29.50 in999.0 mb - 0.00 in0.0 mm 0.00 in0.0 mm
11:00 AM 38.9°F3.8°C 36.2°F2.3°C 90% Calm Calm -- 29.50 in999.0 mb - 0.00 in0.0 mm 0.00 in0.0 mm
11:10 AM 39.7°F4.3°C 36.4°F2.4°C 88% Calm Calm -- 29.50 in999.0 mb - 0.00 in0.0 mm 0.00 in0.0 mm
11:20 AM 39.3°F4.1°C 35.8°F2.1°C 87% Calm Calm -- 29.51 in999.3 mb - 0.00 in0.0 mm 0.00 in0.0 mm
11:30 AM 40.1°F4.5°C 36.3°F2.4°C 86% Calm Calm -- 29.51 in999.3 mb - 0.00 in0.0 mm 0.00 in0.0 mm
11:40 AM 40.6°F4.8°C 36.7°F2.6°C 86% Calm Calm -- 29.51 in999.3 mb - 0.00 in0.0 mm 0.00 in0.0 mm
11:50 AM 40.8°F4.9°C 36.3°F2.4°C 84% Calm Calm -- 29.51 in999.3 mb - 0.00 in0.0 mm 0.00 in0.0 mm
12:00 PM 41.0°F5.0°C 37.1°F2.8°C 86% Calm Calm -- 29.52 in999.7 mb - 0.00 in0.0 mm 0.00 in0.0 mm
12:10 PM 41.3°F5.2°C 36.5°F2.5°C 83% Calm Calm -- 29.52 in999.7 mb - 0.00 in0.0 mm 0.00 in0.0 mm
12:20 PM 41.6°F5.3°C 35.9°F2.2°C 80% Calm Calm -- 29.52 in999.7 mb - 0.00 in0.0 mm 0.00 in0.0 mm
12:30 PM 40.9°F4.9°C 35.2°F1.8°C 80% Calm Calm -- 29.52 in999.7 mb - 0.00 in0.0 mm 0.00 in0.0 mm
12:40 PM 40.7°F4.8°C 35.0°F1.7°C 80% Calm Calm -- 29.52 in999.7 mb - 0.00 in0.0 mm 0.00 in0.0 mm
12:50 PM 41.1°F5.1°C 35.4°F1.9°C 80% Calm Calm -- 29.52 in999.7 mb - 0.00 in0.0 mm 0.00 in0.0 mm
01:00 PM 41.4°F5.2°C 35.1°F1.7°C 78% Calm Calm -- 29.53 in1000.0 mb - 0.00 in0.0 mm 0.00 in0.0 mm
01:10 PM 41.6°F5.3°C 35.2°F1.8°C 78% Calm Calm -- 29.52 in999.7 mb - 0.00 in0.0 mm 0.00 in0.0 mm
01:20 PM 41.6°F5.3°C 34.9°F1.6°C 77% Calm Calm -- 29.53 in1000.0 mb - 0.00 in0.0 mm 0.00 in0.0 mm
01:30 PM 41.1°F5.1°C 33.8°F1.0°C 75% Calm Calm -- 29.53 in1000.0 mb - 0.00 in0.0 mm 0.00 in0.0 mm
01:40 PM 40.7°F4.8°C 34.1°F1.2°C 77% Calm Calm -- 29.54 in1000.3 mb - 0.00 in0.0 mm 0.00 in0.0 mm
01:50 PM 40.4°F4.7°C 34.1°F1.2°C 78% Calm Calm -- 29.54 in1000.3 mb - 0.00 in0.0 mm 0.00 in0.0 mm
02:00 PM 40.4°F4.7°C 34.4°F1.3°C 79% Calm Calm -- 29.54 in1000.3 mb - 0.00 in0.0 mm 0.00 in0.0 mm
02:10 PM 41.1°F5.1°C 35.7°F2.1°C 81% Calm Calm -- 29.54 in1000.3 mb - 0.00 in0.0 mm 0.00 in0.0 mm
02:20 PM 40.6°F4.8°C 34.6°F1.4°C 79% Calm Calm -- 29.54 in1000.3 mb - 0.00 in0.0 mm 0.00 in0.0 mm
02:30 PM 40.1°F4.5°C 34.4°F1.3°C 80% Calm Calm -- 29.55 in1000.7 mb - 0.00 in0.0 mm 0.00 in0.0 mm
02:40 PM 40.6°F4.8°C 35.2°F1.8°C 81% Calm Calm -- 29.55 in1000.7 mb - 0.00 in0.0 mm 0.00 in0.0 mm
02:50 PM 40.6°F4.8°C 35.2°F1.8°C 81% Calm Calm -- 29.55 in1000.7 mb - 0.00 in0.0 mm 0.00 in0.0 mm
03:00 PM 41.6°F5.3°C 36.2°F2.3°C 81% Calm Calm -- 29.56 in1001.0 mb - 0.00 in0.0 mm 0.00 in0.0 mm
03:10 PM 41.7°F5.4°C 36.0°F2.2°C 80% Calm Calm -- 29.56 in1001.0 mb - 0.00 in0.0 mm 0.00 in0.0 mm
03:20 PM 41.3°F5.2°C 35.2°F1.8°C 79% Calm Calm -- 29.56 in1001.0 mb - 0.00 in0.0 mm 0.00 in0.0 mm
03:30 PM 40.7°F4.8°C 34.7°F1.5°C 79% Calm Calm -- 29.56 in1001.0 mb - 0.00 in0.0 mm 0.00 in0.0 mm
03:40 PM 40.4°F4.7°C 34.4°F1.3°C 79% Calm Calm -- 29.56 in1001.0 mb - 0.00 in0.0 mm 0.00 in0.0 mm
03:50 PM 40.3°F4.6°C 34.3°F1.3°C 79% Calm Calm -- 29.56 in1001.0 mb - 0.00 in0.0 mm 0.00 in0.0 mm
04:00 PM 40.1°F4.5°C 34.4°F1.3°C 80% Calm Calm -- 29.57 in1001.4 mb - 0.00 in0.0 mm 0.00 in0.0 mm
04:10 PM 39.9°F4.4°C 34.5°F1.4°C 81% Calm Calm -- 29.57 in1001.4 mb - 0.00 in0.0 mm 0.00 in0.0 mm
04:20 PM 39.9°F4.4°C 34.8°F1.6°C 82% Calm Calm -- 29.57 in1001.4 mb - 0.00 in0.0 mm 0.00 in0.0 mm
04:30 PM 39.5°F4.2°C 34.5°F1.4°C 82% Calm Calm -- 29.57 in1001.4 mb - 0.00 in0.0 mm 0.00 in0.0 mm
04:40 PM 39.3°F4.1°C 34.3°F1.3°C 82% Calm Calm -- 29.58 in1001.7 mb - 0.00 in0.0 mm 0.00 in0.0 mm
04:50 PM 38.9°F3.8°C 33.9°F1.1°C 82% Calm Calm -- 29.58 in1001.7 mb - 0.00 in0.0 mm 0.00 in0.0 mm
05:00 PM 38.6°F3.7°C 33.9°F1.1°C 83% Calm Calm -- 29.59 in1002.0 mb - 0.00 in0.0 mm 0.00 in0.0 mm
05:10 PM 38.4°F3.6°C 34.0°F1.1°C 84% Calm Calm -- 29.59 in1002.0 mb - 0.00 in0.0 mm 0.00 in0.0 mm
05:20 PM 37.9°F3.3°C 33.5°F0.8°C 84% Calm Calm -- 29.60 in1002.4 mb - 0.00 in0.0 mm 0.00 in0.0 mm
05:30 PM 37.5°F3.1°C 33.4°F0.8°C 85% Calm Calm -- 29.59 in1002.0 mb - 0.00 in0.0 mm 0.00 in0.0 mm
05:40 PM 37.3°F2.9°C 33.2°F0.7°C 85% Calm Calm -- 29.60 in1002.4 mb - 0.00 in0.0 mm 0.00 in0.0 mm
05:50 PM 37.0°F2.8°C 33.2°F0.7°C 86% Calm Calm -- 29.60 in1002.4 mb - 0.00 in0.0 mm 0.00 in0.0 mm
06:00 PM 36.4°F2.4°C 32.9°F0.5°C 87% Calm Calm -- 29.61 in1002.7 mb - 0.00 in0.0 mm 0.00 in0.0 mm
06:10 PM 35.9°F2.2°C 32.7°F0.4°C 88% Calm Calm -- 29.61 in1002.7 mb - 0.00 in0.0 mm 0.00 in0.0 mm
06:20 PM 35.4°F1.9°C 32.2°F0.1°C 88% Calm Calm -- 29.61 in1002.7 mb - 0.00 in0.0 mm 0.00 in0.0 mm
06:30 PM 35.0°F1.7°C 32.1°F0.1°C 89% Calm Calm -- 29.62 in1003.0 mb - 0.00 in0.0 mm 0.00 in0.0 mm
06:40 PM 34.7°F1.5°C 31.8°F-0.1°C 89% Calm Calm -- 29.62 in1003.0 mb - 0.00 in0.0 mm 0.00 in0.0 mm
06:50 PM 34.5°F1.4°C 31.9°F-0.1°C 90% Calm Calm -- 29.63 in1003.4 mb - 0.00 in0.0 mm 0.00 in0.0 mm
07:00 PM 34.2°F1.2°C 31.5°F-0.3°C 90% Calm Calm -- 29.63 in1003.4 mb - 0.00 in0.0 mm 0.00 in0.0 mm
07:10 PM 33.9°F1.1°C 31.6°F-0.2°C 91% Calm Calm -- 29.64 in1003.7 mb - 0.00 in0.0 mm 0.00 in0.0 mm
07:20 PM 33.5°F0.8°C 31.2°F-0.4°C 91% Calm Calm -- 29.64 in1003.7 mb - 0.00 in0.0 mm 0.00 in0.0 mm
07:30 PM 33.4°F0.8°C 31.0°F-0.6°C 91% Calm Calm -- 29.64 in1003.7 mb - 0.00 in0.0 mm 0.00 in0.0 mm
07:40 PM 33.2°F0.7°C 31.1°F-0.5°C 92% Calm Calm -- 29.65 in1004.1 mb - 0.00 in0.0 mm 0.00 in0.0 mm
07:50 PM 33.2°F0.7°C 31.1°F-0.5°C 92% Calm Calm -- 29.65 in1004.1 mb - 0.00 in0.0 mm 0.00 in0.0 mm
08:00 PM 33.0°F0.6°C 31.2°F-0.4°C 93% Calm Calm -- 29.65 in1004.1 mb - 0.00 in0.0 mm 0.00 in0.0 mm
08:10 PM 32.8°F0.4°C 31.0°F-0.6°C 93% Calm Calm -- 29.66 in1004.4 mb - 0.00 in0.0 mm 0.00 in0.0 mm
08:20 PM 32.6°F0.3°C 30.8°F-0.7°C 93% Calm Calm -- 29.66 in1004.4 mb - 0.00 in0.0 mm 0.00 in0.0 mm
08:30 PM 32.4°F0.2°C 30.6°F-0.8°C 93% Calm Calm -- 29.66 in1004.4 mb - 0.00 in0.0 mm 0.00 in0.0 mm
08:40 PM 32.3°F0.2°C 30.5°F-0.8°C 93% Calm Calm -- 29.67 in1004.7 mb - 0.00 in0.0 mm 0.00 in0.0 mm
08:50 PM 32.3°F0.2°C 30.8°F-0.7°C 94% Calm Calm -- 29.67 in1004.7 mb - 0.00 in0.0 mm 0.00 in0.0 mm
09:00 PM 32.3°F0.2°C 30.7°F-0.7°C 94% Calm Calm -- 29.68 in1005.1 mb - 0.00 in0.0 mm 0.00 in0.0 mm
09:10 PM 32.3°F0.2°C 30.8°F-0.7°C 94% Calm Calm -- 29.68 in1005.1 mb - 0.00 in0.0 mm 0.00 in0.0 mm
09:20 PM 32.4°F0.2°C 30.9°F-0.6°C 94% Calm Calm -- 29.68 in1005.1 mb - 0.00 in0.0 mm 0.00 in0.0 mm
09:30 PM 32.6°F0.3°C 31.0°F-0.6°C 94% Calm Calm -- 29.69 in1005.4 mb - 0.00 in0.0 mm 0.00 in0.0 mm
09:40 PM 32.7°F0.4°C 31.1°F-0.5°C 94% Calm Calm -- 29.69 in1005.4 mb - 0.00 in0.0 mm 0.00 in0.0 mm
09:50 PM 32.7°F0.4°C 31.2°F-0.4°C 94% Calm Calm -- 29.69 in1005.4 mb - 0.00 in0.0 mm 0.00 in0.0 mm
10:00 PM 32.8°F0.4°C 31.3°F-0.4°C 94% Calm Calm -- 29.70 in1005.8 mb - 0.00 in0.0 mm 0.00 in0.0 mm
10:10 PM 32.9°F0.5°C 31.4°F-0.3°C 94% Calm Calm -- 29.70 in1005.8 mb - 0.00 in0.0 mm 0.00 in0.0 mm
10:20 PM 33.1°F0.6°C 31.3°F-0.4°C 93% Calm Calm -- 29.70 in1005.8 mb - 0.00 in0.0 mm 0.00 in0.0 mm
10:30 PM 33.3°F0.7°C 31.5°F-0.3°C 93% Calm Calm -- 29.71 in1006.1 mb - 0.00 in0.0 mm 0.00 in0.0 mm
10:40 PM 33.6°F0.9°C 31.5°F-0.3°C 92% Calm Calm -- 29.71 in1006.1 mb - 0.00 in0.0 mm 0.00 in0.0 mm
10:50 PM 33.8°F1.0°C 31.7°F-0.2°C 92% Calm Calm -- 29.71 in1006.1 mb - 0.00 in0.0 mm 0.00 in0.0 mm
11:00 PM 33.6°F0.9°C 31.3°F-0.4°C 91% Calm Calm -- 29.71 in1006.1 mb - 0.00 in0.0 mm 0.00 in0.0 mm
11:10 PM 33.5°F0.8°C 31.4°F-0.3°C 92% Calm Calm -- 29.72 in1006.4 mb - 0.00 in0.0 mm 0.00 in0.0 mm
11:20 PM 33.6°F0.9°C 31.5°F-0.3°C 92% Calm Calm -- 29.72 in1006.4 mb - 0.00 in0.0 mm 0.00 in0.0 mm
11:30 PM 33.6°F0.9°C 31.5°F-0.3°C 92% Calm Calm -- 29.72 in1006.4 mb - 0.00 in0.0 mm 0.00 in0.0 mm
11:40 PM 33.6°F0.9°C 31.3°F-0.4°C 91% Calm Calm -- 29.72 in1006.4 mb - 0.00 in0.0 mm 0.00 in0.0 mm
11:50 PM 33.6°F0.9°C 31.2°F-0.4°C 91% Calm Calm -- 29.73 in1006.8 mb - 0.00 in0.0 mm 0.00 in0.0 mm